Time;durP1;ratioP1;P1;durP2;ratioP2;P2;SDS_P1;SDS_P2;PMS_P1;PMS_P2;Temp;Humidity;BMP_temperature;BMP_pressure;BME280_temperature;BME280_humidity;BME280_pressure;Samples;Min_cycle;Max_cycle;Signal;HPM_P1;HPM_P2
2022/04/06 00:02:25;;;;;;;38.58;6.82;;;;;;;8.60;100.00;100534.56;5078774;28;20131;-78
2022/04/06 00:04:54;;;;;;;19.40;6.15;;;;;;;8.59;100.00;100531.94;5079944;28;20080;-77
2022/04/06 00:07:25;;;;;;;19.48;6.05;;;;;;;8.62;100.00;100534.59;5079858;28;20044;-77
2022/04/06 00:09:53;;;;;;;24.63;6.95;;;;;;;8.64;100.00;100535.50;5079061;28;20048;-77
2022/04/06 00:12:24;;;;;;;29.65;7.63;;;;;;;8.59;100.00;100531.94;5079662;28;20063;-77
2022/04/06 00:14:52;;;;;;;27.15;6.32;;;;;;;8.60;100.00;100529.34;5079605;28;20082;-77
2022/04/06 00:17:24;;;;;;;23.23;7.53;;;;;;;8.66;100.00;100526.81;5079400;28;20058;-77
2022/04/06 00:19:56;;;;;;;25.20;7.00;;;;;;;8.65;100.00;100524.19;5078983;28;20048;-76
2022/04/06 00:22:24;;;;;;;23.30;6.25;;;;;;;8.64;100.00;100515.47;5079985;28;20072;-76
2022/04/06 00:24:52;;;;;;;21.33;6.85;;;;;;;8.66;100.00;100518.97;5080546;28;20124;-77
2022/04/06 00:27:23;;;;;;;22.17;6.88;;;;;;;8.63;100.00;100523.28;5081677;28;20457;-77
2022/04/06 00:29:52;;;;;;;29.02;6.93;;;;;;;8.60;100.00;100515.38;5081547;28;20083;-77
2022/04/06 00:32:21;;;;;;;26.02;7.05;;;;;;;8.63;100.00;100515.44;5082056;28;20070;-75
2022/04/06 00:37:47;;;;;;;20.33;6.70;;;;;;;8.67;99.61;100514.63;5077221;28;20119;-76
2022/04/06 00:40:15;;;;;;;23.60;6.35;;;;;;;8.68;99.16;100506.81;5074051;28;20051;-76
2022/04/06 00:42:43;;;;;;;23.35;6.05;;;;;;;8.69;98.68;100502.47;5073993;28;20055;-75
2022/04/06 00:45:11;;;;;;;21.60;5.80;;;;;;;8.70;98.16;100505.09;5074229;28;20064;-76
2022/04/06 00:47:40;;;;;;;22.58;5.65;;;;;;;8.71;97.02;100496.41;5074312;28;20045;-75
2022/04/06 00:50:10;;;;;;;17.30;4.90;;;;;;;8.74;96.39;100496.44;5073807;28;20094;-76
2022/04/06 00:52:39;;;;;;;19.58;6.03;;;;;;;8.71;96.36;100488.56;5073933;28;20079;-76
2022/04/06 00:55:09;;;;;;;16.02;5.05;;;;;;;8.73;96.28;100494.69;5073785;28;20119;-75
2022/04/06 00:57:38;;;;;;;17.52;5.40;;;;;;;8.69;96.90;100482.44;5074080;28;20049;-75
2022/04/06 01:00:10;;;;;;;19.88;4.57;;;;;;;8.69;96.59;100492.88;5073788;28;20056;-75
2022/04/06 01:02:38;;;;;;;17.77;5.03;;;;;;;8.65;96.36;100485.84;5073805;28;20084;-76
2022/04/06 01:05:09;;;;;;;12.45;3.80;;;;;;;8.64;96.39;100484.09;5073768;28;20045;-76
2022/04/06 01:07:37;;;;;;;17.73;4.60;;;;;;;8.65;96.30;100480.63;5072750;28;20064;-75
2022/04/06 01:10:05;;;;;;;17.73;5.80;;;;;;;8.64;96.42;100483.22;5073187;28;20443;-75
2022/04/06 01:12:35;;;;;;;22.83;6.22;;;;;;;8.63;96.12;100492.78;5073465;28;20044;-76
2022/04/06 01:15:03;;;;;;;13.75;5.18;;;;;;;8.62;96.19;100480.56;5073517;28;20044;-74
2022/04/06 01:17:35;;;;;;;22.88;6.05;;;;;;;8.63;96.42;100481.47;5073168;28;20052;-74
2022/04/06 01:20:05;;;;;;;19.75;5.22;;;;;;;8.58;97.11;100478.78;5073291;28;20104;-74
2022/04/06 01:22:35;;;;;;;26.95;5.95;;;;;;;8.55;97.31;100478.72;5073298;28;20044;-75
2022/04/06 01:25:05;;;;;;;19.33;5.55;;;;;;;8.52;97.61;100473.44;5073350;28;20067;-75
2022/04/06 01:27:33;;;;;;;14.02;5.43;;;;;;;8.59;97.52;100463.97;5073246;28;20048;-75
2022/04/06 01:30:01;;;;;;;24.73;6.00;;;;;;;8.52;97.76;100473.44;5072914;28;20083;-75
2022/04/06 01:32:32;;;;;;;17.33;5.75;;;;;;;8.52;97.99;100473.44;5072843;28;20098;-75
2022/04/06 01:35:01;;;;;;;16.58;6.05;;;;;;;8.52;97.93;100473.44;5073020;28;20465;-77
2022/04/06 01:37:30;;;;;;;18.15;6.90;;;;;;;8.49;97.88;100468.19;5073011;28;20052;-75
2022/04/06 01:40:00;;;;;;;23.77;5.88;;;;;;;8.49;97.73;100471.66;5072914;28;20055;-74
2022/04/06 01:42:28;;;;;;;16.95;5.95;;;;;;;8.49;97.69;100473.41;5072865;28;20114;-77
2022/04/06 01:44:56;;;;;;;20.67;5.65;;;;;;;8.47;97.35;100470.75;5072970;28;20053;-75
2022/04/06 01:47:24;;;;;;;14.85;5.22;;;;;;;8.47;97.25;100469.88;5072796;28;20086;-75
2022/04/06 01:52:37;;;;;;;20.05;5.50;;;;;;;8.47;96.26;100464.66;5072145;28;20131;-75
2022/04/06 01:55:09;;;;;;;14.95;5.40;;;;;;;8.47;95.78;100469.88;5072412;28;20488;-75
2022/04/06 01:57:38;;;;;;;16.35;4.47;;;;;;;8.48;95.19;100464.69;5072208;28;20510;-75
2022/04/06 02:00:09;;;;;;;19.63;5.82;;;;;;;8.42;95.47;100464.59;5072282;28;20067;-76
2022/04/06 02:02:40;;;;;;;21.88;4.72;;;;;;;8.45;94.37;100462.03;5072440;28;20055;-75
2022/04/06 02:05:11;;;;;;;16.90;4.35;;;;;;;8.49;93.91;100458.59;5072537;28;20074;-74
2022/04/06 02:07:39;;;;;;;11.70;4.18;;;;;;;8.42;93.67;100445.41;5072246;28;20127;-75
2022/04/06 02:10:09;;;;;;;16.75;4.03;;;;;;;8.40;93.88;100457.56;5072219;28;20080;-75
2022/04/06 02:12:38;;;;;;;16.27;3.97;;;;;;;8.41;92.04;100459.34;5072398;28;20094;-76
2022/04/06 02:15:10;;;;;;;15.00;3.25;;;;;;;8.41;91.41;100456.72;5072709;28;20055;-75
2022/04/06 02:17:38;;;;;;;12.93;3.58;;;;;;;8.41;91.46;100443.66;5072535;28;20048;-76
2022/04/06 02:20:06;;;;;;;10.45;3.30;;;;;;;8.37;90.89;100457.53;5072233;28;20460;-76
2022/04/06 02:22:34;;;;;;;10.27;3.25;;;;;;;8.40;90.14;100457.56;5072029;28;20135;-74
2022/04/06 02:25:02;;;;;;;12.95;4.00;;;;;;;8.39;89.22;100451.47;5072579;28;20064;-75
2022/04/06 02:27:32;;;;;;;10.27;3.67;;;;;;;8.41;89.27;100452.38;5072820;28;20111;-76
2022/04/06 02:30:00;;;;;;;14.43;3.28;;;;;;;8.38;89.10;100454.06;5072587;28;20119;-75
2022/04/06 02:32:27;;;;;;;13.30;3.28;;;;;;;8.38;88.86;100449.72;5072177;28;20059;-77
2022/04/06 02:34:55;;;;;;;7.90;3.10;;;;;;;8.36;88.10;100446.19;5072445;28;20431;-75
2022/04/06 02:37:23;;;;;;;10.60;2.88;;;;;;;8.35;87.59;100433.09;5072394;28;20086;-75
2022/04/06 02:39:51;;;;;;;8.82;3.25;;;;;;;8.33;87.05;100430.47;5072500;28;20045;-76
2022/04/06 02:42:19;;;;;;;8.43;2.83;;;;;;;8.26;87.11;100427.72;5072977;28;20123;-77
2022/04/06 02:44:49;;;;;;;6.22;2.63;;;;;;;8.27;86.78;100429.50;5072875;28;20083;-75
2022/04/06 02:47:17;;;;;;;8.48;2.95;;;;;;;8.17;86.89;100418.91;5072449;28;20036;-75
2022/04/06 02:49:45;;;;;;;16.48;3.28;;;;;;;8.07;87.34;100417.00;5072093;28;20050;-77
2022/04/06 02:52:12;;;;;;;8.02;2.45;;;;;;;8.03;87.45;100420.41;5071987;28;20053;-75
2022/04/06 02:54:40;;;;;;;10.65;3.08;;;;;;;8.02;87.57;100410.81;5071836;28;20441;-77
2022/04/06 02:57:08;;;;;;;9.10;3.25;;;;;;;7.98;87.61;100422.06;5072179;28;20122;-74
2022/04/06 02:59:39;;;;;;;9.57;3.13;;;;;;;8.01;87.42;100414.28;5072187;28;20453;-77
2022/04/06 03:02:08;;;;;;;11.45;3.22;;;;;;;8.00;87.90;100414.25;5071779;28;20052;-75
2022/04/06 03:04:36;;;;;;;10.40;2.63;;;;;;;8.03;87.13;100407.34;5072032;28;20076;-75
2022/04/06 03:07:04;;;;;;;13.63;3.00;;;;;;;8.03;87.23;100398.63;5071755;28;20091;-77
2022/04/06 03:09:32;;;;;;;7.90;2.80;;;;;;;7.99;87.91;100405.53;5072123;28;20427;-77
2022/04/06 03:12:00;;;;;;;8.35;2.70;;;;;;;7.96;87.99;100396.78;5071665;28;20131;-76
2022/04/06 03:14:28;;;;;;;14.65;3.47;;;;;;;7.95;87.88;100390.66;5071841;28;20079;-77
2022/04/06 03:16:56;;;;;;;8.93;2.55;;;;;;;7.94;88.26;100391.53;5071625;28;20131;-77
2022/04/06 03:19:26;;;;;;;9.75;2.58;;;;;;;7.91;88.38;100393.19;5072070;28;20044;-77
2022/04/06 03:21:56;;;;;;;5.32;2.50;;;;;;;7.95;88.08;100385.44;5071890;28;20044;-77
2022/04/06 03:24:24;;;;;;;9.63;2.25;;;;;;;7.93;87.63;100394.97;5071892;28;20049;-76
2022/04/06 03:26:52;;;;;;;6.93;2.40;;;;;;;7.93;87.83;100396.72;5071604;28;20051;-76
2022/04/06 03:29:20;;;;;;;14.45;3.65;;;;;;;7.91;87.77;100395.81;5071372;28;20500;-76
2022/04/06 03:31:49;;;;;;;9.30;2.35;;;;;;;7.88;88.24;100378.38;5075002;28;20428;-77
2022/04/06 03:34:17;;;;;;;7.05;2.20;;;;;;;7.94;88.20;100388.03;5075800;28;20052;-76
2022/04/06 03:36:46;;;;;;;11.18;2.55;;;;;;;7.97;88.29;100375.91;5075585;28;20136;-76
2022/04/06 03:39:15;;;;;;;8.38;2.47;;;;;;;8.02;88.05;100373.38;5075722;28;20049;-76
2022/04/06 03:41:43;;;;;;;11.00;3.00;;;;;;;8.00;88.40;100373.34;5075407;28;20052;-76
2022/04/06 03:44:11;;;;;;;10.23;2.70;;;;;;;7.98;89.25;100371.56;5075463;28;20053;-76
2022/04/06 03:46:39;;;;;;;8.60;3.58;;;;;;;7.97;89.52;100367.19;5075504;28;20076;-76
2022/04/06 03:49:08;;;;;;;16.63;3.28;;;;;;;7.97;90.81;100357.63;5075331;28;20075;-77
2022/04/06 03:51:37;;;;;;;18.23;4.00;;;;;;;8.07;92.35;100350.81;5074978;28;20052;-76
2022/04/06 03:54:06;;;;;;;18.80;4.25;;;;;;;8.08;93.70;100355.19;5075202;28;20048;-76
2022/04/06 03:56:34;;;;;;;17.75;4.20;;;;;;;8.04;94.88;100359.47;5074908;28;20465;-77
2022/04/06 03:59:04;;;;;;;15.35;3.90;;;;;;;8.05;94.90;100356.00;5075147;28;20058;-76
2022/04/06 04:01:35;;;;;;;14.32;4.55;;;;;;;8.07;95.00;100349.09;5075787;28;20044;-76
2022/04/06 04:04:04;;;;;;;21.38;4.38;;;;;;;8.08;95.06;100348.22;5075620;28;20045;-76
2022/04/06 04:06:32;;;;;;;20.10;4.15;;;;;;;8.03;95.29;100341.16;5075366;28;20083;-76
2022/04/06 04:09:00;;;;;;;18.70;4.38;;;;;;;8.03;94.79;100342.06;5074946;28;20059;-77
2022/04/06 04:11:30;;;;;;;12.00;4.18;;;;;;;8.01;94.84;100335.94;5075207;28;20098;-77
2022/04/06 04:13:59;;;;;;;11.90;3.35;;;;;;;8.03;94.28;100344.66;5075232;28;20048;-77
2022/04/06 04:16:27;;;;;;;7.85;3.35;;;;;;;7.97;94.45;100341.06;5074688;28;20052;-77
2022/04/06 04:18:55;;;;;;;16.45;3.83;;;;;;;7.97;94.40;100328.91;5075073;28;20136;-77
2022/04/06 04:21:32;;;;;;;13.20;3.90;;;;;;;7.94;94.43;100333.19;5075098;28;20049;-78
2022/04/06 04:24:00;;;;;;;11.80;3.75;;;;;;;7.91;94.65;100331.41;5074687;28;20524;-77
2022/04/06 04:26:30;;;;;;;11.48;3.83;;;;;;;7.93;94.03;100321.00;5075000;28;20048;-78
2022/04/06 04:28:58;;;;;;;12.40;3.55;;;;;;;7.91;94.37;100320.09;5074854;28;20060;-77
2022/04/06 04:31:26;;;;;;;9.35;3.08;;;;;;;8.00;93.82;100321.13;5075345;28;20127;-76
2022/04/06 04:33:55;;;;;;;16.15;4.07;;;;;;;8.04;93.38;100322.03;5075413;28;20102;-77
2022/04/06 04:36:24;;;;;;;14.93;3.60;;;;;;;8.03;93.37;100310.72;5075253;28;20052;-77
2022/04/06 04:38:52;;;;;;;10.25;3.00;;;;;;;8.09;92.97;100307.31;5074567;28;20047;-77
2022/04/06 04:41:20;;;;;;;13.05;3.30;;;;;;;8.09;93.03;100305.59;5074034;28;20098;-77
2022/04/06 04:43:50;;;;;;;12.02;3.90;;;;;;;8.14;92.80;100298.69;5074213;28;20070;-77
2022/04/06 04:46:18;;;;;;;16.00;3.40;;;;;;;8.14;92.72;100309.16;5074636;28;20040;-78
2022/04/06 04:48:46;;;;;;;16.38;3.83;;;;;;;8.14;93.19;100303.03;5074566;28;20040;-76
2022/04/06 04:51:15;;;;;;;13.35;4.25;;;;;;;8.19;92.80;100297.03;5074087;28;20080;-78
2022/04/06 04:53:43;;;;;;;13.30;3.63;;;;;;;8.20;93.19;100300.50;5073771;28;20087;-77
2022/04/06 04:56:11;;;;;;;10.85;3.17;;;;;;;8.24;92.96;100296.22;5074261;28;20067;-78
2022/04/06 04:58:39;;;;;;;13.15;3.72;;;;;;;8.27;92.79;100297.13;5074113;28;20064;-77
2022/04/06 05:01:09;;;;;;;11.65;3.75;;;;;;;8.24;93.07;100294.47;5074041;28;20052;-77
2022/04/06 05:03:37;;;;;;;15.18;3.60;;;;;;;8.21;93.50;100294.44;5074042;28;20052;-78
2022/04/06 05:06:06;;;;;;;9.98;3.67;;;;;;;8.22;93.66;100300.53;5074033;28;20049;-77
2022/04/06 05:08:34;;;;;;;9.73;3.00;;;;;;;8.23;93.63;100299.69;5074091;28;20103;-77
2022/04/06 05:11:02;;;;;;;12.65;3.72;;;;;;;8.23;93.71;100297.94;5074217;28;20094;-78
2022/04/06 05:13:30;;;;;;;15.90;4.07;;;;;;;8.25;93.86;100290.13;5073599;28;20215;-77
2022/04/06 05:15:59;;;;;;;10.82;3.35;;;;;;;8.22;94.13;100290.09;5073840;28;20056;-76
2022/04/06 05:18:29;;;;;;;13.73;4.18;;;;;;;8.22;94.04;100290.09;5073671;28;20041;-76
2022/04/06 05:20:58;;;;;;;16.15;4.72;;;;;;;8.24;93.91;100289.25;5073581;28;20055;-76
2022/04/06 05:23:26;;;;;;;13.85;4.32;;;;;;;8.27;93.38;100283.19;5073300;28;20086;-76
2022/04/06 05:25:54;;;;;;;20.60;4.63;;;;;;;8.27;93.25;100283.19;5073653;28;20132;-76
2022/04/06 05:28:22;;;;;;;19.00;3.83;;;;;;;8.25;92.64;100272.72;5073624;28;20090;-78
2022/04/06 05:30:50;;;;;;;18.10;3.72;;;;;;;8.30;92.28;100291.06;5073608;28;20048;-78
2022/04/06 05:33:18;;;;;;;16.02;3.80;;;;;;;8.29;91.46;100284.09;5073035;28;20044;-75
2022/04/06 05:35:47;;;;;;;12.43;3.35;;;;;;;8.29;91.19;100281.47;5073452;28;20056;-76
2022/04/06 05:38:15;;;;;;;11.55;3.33;;;;;;;8.30;90.75;100281.50;5073125;28;20401;-76
2022/04/06 05:40:43;;;;;;;10.25;2.63;;;;;;;8.33;89.90;100280.66;5073174;28;20445;-77
2022/04/06 05:43:11;;;;;;;9.10;3.20;;;;;;;8.35;89.21;100292.00;5073144;28;20048;-77
2022/04/06 05:45:39;;;;;;;14.75;3.67;;;;;;;8.36;88.40;100292.03;5072980;28;20056;-78
2022/04/06 05:48:08;;;;;;;14.43;3.95;;;;;;;8.39;87.54;100294.69;5072890;28;20045;-77
2022/04/06 05:50:36;;;;;;;15.18;5.35;;;;;;;8.40;87.73;100290.34;5072530;28;20443;-77
2022/04/06 05:53:06;;;;;;;10.65;3.13;;;;;;;8.39;87.44;100283.34;5072421;28;20127;-76
2022/04/06 05:55:34;;;;;;;9.68;3.45;;;;;;;8.40;87.74;100279.88;5072568;28;20075;-76
2022/04/06 05:58:02;;;;;;;12.15;3.25;;;;;;;8.42;86.84;100283.41;5072827;28;20051;-77
2022/04/06 06:00:30;;;;;;;12.85;2.90;;;;;;;8.43;86.35;100282.53;5072805;28;20052;-77
2022/04/06 06:02:58;;;;;;;12.25;3.28;;;;;;;8.42;86.28;100272.94;5072458;28;20521;-76
2022/04/06 06:05:26;;;;;;;11.35;3.05;;;;;;;8.45;86.11;100263.41;5073262;28;20102;-76
2022/04/06 06:07:55;;;;;;;16.05;3.88;;;;;;;8.42;86.39;100272.94;5072476;28;20059;-77
2022/04/06 06:10:25;;;;;;;12.93;3.05;;;;;;;8.46;86.43;100269.50;5072878;28;20052;-77
2022/04/06 06:12:53;;;;;;;13.18;3.00;;;;;;;8.47;86.40;100274.75;5072578;28;20090;-76
2022/04/06 06:15:21;;;;;;;14.45;2.83;;;;;;;8.46;86.35;100273.00;5072335;28;20508;-77
2022/04/06 06:17:49;;;;;;;9.45;2.97;;;;;;;8.48;86.39;100263.44;5072558;28;20098;-78
2022/04/06 06:20:17;;;;;;;9.90;2.53;;;;;;;8.55;85.60;100267.00;5072519;28;20049;-78
2022/04/06 06:22:44;;;;;;;9.23;2.95;;;;;;;8.55;85.77;100261.78;5072236;28;20063;-78
2022/04/06 06:25:12;;;;;;;11.70;2.92;;;;;;;8.60;85.78;100254.00;5074131;28;20135;-78
2022/04/06 06:27:44;;;;;;;12.23;3.10;;;;;;;8.63;85.41;100246.19;5072943;28;20094;-78
2022/04/06 06:30:18;;;;;;;16.73;3.95;;;;;;;8.67;85.58;100251.47;5072813;28;20055;-78
2022/04/06 06:32:46;;;;;;;11.27;2.92;;;;;;;8.69;86.46;100249.75;5072374;28;20052;-76
2022/04/06 06:35:14;;;;;;;11.65;2.90;;;;;;;8.74;85.90;100262.88;5072636;28;20045;-77
2022/04/06 06:37:47;;;;;;;12.70;3.53;;;;;;;8.75;86.66;100249.84;5072645;28;20098;-76
2022/04/06 06:40:16;;;;;;;9.55;2.75;;;;;;;8.82;86.51;100262.09;5071844;28;20050;-76
2022/04/06 06:42:46;;;;;;;13.30;3.60;;;;;;;8.81;87.35;100251.63;5072314;28;20094;-77
2022/04/06 06:45:14;;;;;;;10.65;2.97;;;;;;;8.84;87.67;100254.28;5072301;28;20056;-77
2022/04/06 06:47:42;;;;;;;10.20;3.42;;;;;;;8.87;88.86;100258.66;5072592;28;20147;-77
2022/04/06 06:50:12;;;;;;;11.07;3.65;;;;;;;8.85;89.36;100243.84;5072345;28;20041;-76
2022/04/06 06:52:40;;;;;;;10.93;3.28;;;;;;;8.87;90.80;100236.00;5071870;28;20052;-76
2022/04/06 06:55:14;;;;;;;9.27;3.40;;;;;;;8.87;92.81;100240.38;5071754;28;20127;-75
2022/04/06 06:57:42;;;;;;;13.02;3.72;;;;;;;8.71;94.11;100241.94;5072069;28;20136;-75
2022/04/06 07:00:12;;;;;;;9.80;3.92;;;;;;;8.68;94.82;100242.78;5071947;28;20044;-75
2022/04/06 07:02:41;;;;;;;17.98;3.92;;;;;;;8.62;96.03;100242.72;5071795;28;20048;-76
2022/04/06 07:05:10;;;;;;;16.70;3.45;;;;;;;8.66;96.24;100252.34;5072550;28;20056;-76
2022/04/06 07:07:54;;;;;;;16.90;3.78;;;;;;;8.62;96.13;100247.94;5058111;28;20048;-76
2022/04/06 07:10:22;;;;;;;14.68;3.88;;;;;;;8.58;96.81;100240.03;5073956;28;20169;-76
2022/04/06 07:12:51;;;;;;;12.40;3.55;;;;;;;8.52;96.97;100239.09;5076066;28;20068;-76
2022/04/06 07:15:20;;;;;;;14.10;3.65;;;;;;;8.58;96.95;100232.19;5076243;28;20052;-76
2022/04/06 07:17:52;;;;;;;15.65;4.05;;;;;;;8.57;96.99;100240.91;5075672;28;20044;-75
2022/04/06 07:20:20;;;;;;;14.60;3.63;;;;;;;8.57;96.80;100231.31;5075560;28;20044;-75
2022/04/06 07:22:49;;;;;;;16.20;3.10;;;;;;;8.61;96.54;100246.19;5076013;28;20056;-75
2022/04/06 07:25:16;;;;;;;14.32;4.20;;;;;;;8.58;96.82;100245.25;5075590;28;20098;-75
2022/04/06 07:27:44;;;;;;;11.48;3.90;;;;;;;8.56;97.85;100249.59;5076015;28;20074;-75
2022/04/06 07:30:14;;;;;;;10.40;3.20;;;;;;;8.51;98.55;100241.69;5075787;28;20049;-76
2022/04/06 07:32:44;;;;;;;11.77;3.22;;;;;;;8.48;99.87;100239.06;5075482;28;20052;-73
2022/04/06 07:35:12;;;;;;;12.43;3.67;;;;;;;8.45;100.00;100236.41;5075519;28;20049;-75
2022/04/06 07:37:42;;;;;;;15.00;3.90;;;;;;;8.46;100.00;100230.31;5075688;28;20049;-75
2022/04/06 07:40:12;;;;;;;14.48;4.13;;;;;;;8.36;100.00;100223.22;5075663;28;20406;-75
2022/04/06 07:42:41;;;;;;;17.60;4.53;;;;;;;8.40;100.00;100222.41;5075231;28;20458;-76
2022/04/06 07:45:13;;;;;;;10.88;3.33;;;;;;;8.45;100.00;100211.16;5075258;28;20484;-76
2022/04/06 07:47:42;;;;;;;13.75;3.67;;;;;;;8.49;100.00;100209.44;5075555;28;20176;-76
2022/04/06 07:50:13;;;;;;;13.18;3.35;;;;;;;8.46;100.00;100223.34;5075424;28;20087;-75
2022/04/06 07:52:42;;;;;;;14.90;3.65;;;;;;;8.54;100.00;100213.00;5075202;28;20041;-75
2022/04/06 07:55:11;;;;;;;18.02;4.18;;;;;;;8.52;100.00;100197.28;5074682;28;20052;-75
2022/04/06 07:57:40;;;;;;;14.98;4.40;;;;;;;8.59;100.00;100197.34;5075235;28;20098;-75
2022/04/06 08:00:10;;;;;;;14.50;3.95;;;;;;;8.61;100.00;100200.88;5074834;28;20044;-75
2022/04/06 08:02:38;;;;;;;16.30;5.32;;;;;;;8.61;100.00;100199.13;5075088;28;20079;-75
2022/04/06 08:05:07;;;;;;;10.20;3.45;;;;;;;8.64;100.00;100200.91;5075057;28;20055;-75
2022/04/06 08:07:39;;;;;;;20.52;4.38;;;;;;;8.67;100.00;100195.72;5074630;28;20123;-76
2022/04/06 08:10:09;;;;;;;14.17;3.77;;;;;;;8.70;100.00;100195.75;5075013;28;20048;-77
2022/04/06 08:12:37;;;;;;;17.23;4.88;;;;;;;8.75;100.00;100192.31;5074556;28;20059;-77
2022/04/06 08:15:07;;;;;;;21.60;4.55;;;;;;;8.73;100.00;100204.50;5075144;28;20048;-76
2022/04/06 08:17:36;;;;;;;26.25;5.45;;;;;;;8.76;100.00;100180.13;5074804;28;20075;-76
2022/04/06 08:20:06;;;;;;;21.13;4.75;;;;;;;8.75;100.00;100186.19;5074720;28;20044;-76
2022/04/06 08:22:34;;;;;;;15.90;4.40;;;;;;;8.75;100.00;100199.28;5074516;28;20616;-76
2022/04/06 08:25:04;;;;;;;14.95;4.13;;;;;;;8.74;100.00;100182.72;5074376;28;20116;-76
2022/04/06 08:27:52;;;;;;;12.70;3.85;;;;;;;8.73;100.00;100194.03;5074587;28;20394;-76
2022/04/06 08:30:22;;;;;;;13.88;4.50;;;;;;;8.74;100.00;100193.16;5074344;28;20052;-75
2022/04/06 08:32:50;;;;;;;14.43;4.07;;;;;;;8.73;100.00;100201.88;5074355;28;20078;-75
2022/04/06 08:35:18;;;;;;;18.58;4.65;;;;;;;8.62;100.00;100198.28;5074890;28;20048;-77
2022/04/06 08:37:46;;;;;;;16.08;4.93;;;;;;;8.60;100.00;100184.31;5075021;28;20135;-75
2022/04/06 08:40:18;;;;;;;19.48;4.60;;;;;;;8.58;100.00;100175.56;5074406;28;20477;-76
2022/04/06 08:42:48;;;;;;;14.38;4.18;;;;;;;8.60;100.00;100179.09;5074445;28;20052;-75
2022/04/06 08:45:17;;;;;;;14.38;4.20;;;;;;;8.69;100.00;100176.56;5074404;28;20151;-76
2022/04/06 08:47:48;;;;;;;23.42;4.90;;;;;;;8.72;100.00;100170.50;5074041;28;20124;-76
2022/04/06 08:50:18;;;;;;;20.08;6.22;;;;;;;8.71;100.00;100176.56;5074128;28;20044;-76
2022/04/06 08:52:46;;;;;;;16.10;5.75;;;;;;;8.68;100.00;100180.03;5074202;28;20098;-76
2022/04/06 08:55:33;;;;;;;14.88;5.53;;;;;;;8.75;100.00;100171.41;5074311;28;20179;-76
2022/04/06 08:58:02;;;;;;;16.13;4.70;;;;;;;8.80;100.00;100174.06;5074261;28;20537;-76
2022/04/06 09:00:30;;;;;;;21.02;6.05;;;;;;;8.84;100.00;100173.22;5073904;28;20650;-76
2022/04/06 09:02:58;;;;;;;29.00;5.75;;;;;;;8.89;100.00;100175.88;5073769;28;20546;-76
2022/04/06 09:05:29;;;;;;;22.67;6.15;;;;;;;8.87;100.00;100177.59;5073815;28;20048;-76
2022/04/06 09:07:57;;;;;;;23.05;5.60;;;;;;;8.95;100.00;100202.09;5073740;28;20043;-75
2022/04/06 09:10:31;;;;;;;22.48;5.20;;;;;;;8.97;100.00;100166.38;5074028;28;20194;-76
2022/04/06 09:13:15;;;;;;;25.60;6.57;;;;;;;8.98;100.00;100170.75;5073744;28;20051;-75
2022/04/06 09:15:45;;;;;;;18.70;5.13;;;;;;;9.05;100.00;100169.94;5073676;28;20398;-75
2022/04/06 09:18:13;;;;;;;18.98;5.28;;;;;;;9.03;100.00;100172.53;5073936;28;20060;-75
2022/04/06 09:20:41;;;;;;;19.42;6.28;;;;;;;9.06;100.00;100169.94;5073427;28;20055;-76
2022/04/06 09:23:10;;;;;;;18.73;5.88;;;;;;;9.11;100.00;100173.47;5073641;28;20079;-75
2022/04/06 09:25:39;;;;;;;19.90;5.13;;;;;;;9.17;100.00;100172.66;5073592;28;20059;-78
2022/04/06 09:28:09;;;;;;;21.55;5.40;;;;;;;9.17;100.00;100180.50;5072870;28;20105;-77
2022/04/06 09:30:43;;;;;;;17.27;6.60;;;;;;;9.24;100.00;100179.69;5073277;28;20468;-72
2022/04/06 09:33:15;;;;;;;;;;;;;;;9.23;100.00;100175.31;5073394;28;20049;-72
2022/04/06 09:35:43;;;;;;;25.73;5.80;;;;;;;9.28;100.00;100170.13;5072782;28;19921;-71
2022/04/06 09:38:19;;;;;;;18.48;5.13;;;;;;;9.29;100.00;100164.91;5073002;28;20040;-72
2022/04/06 09:40:47;;;;;;;14.48;5.75;;;;;;;9.38;100.00;100151.84;5072666;28;20041;-71
2022/04/06 09:43:26;;;;;;;18.73;5.05;;;;;;;9.46;100.00;100178.97;5072552;28;20098;-71
2022/04/06 09:49:02;;;;;;;29.77;5.65;;;;;;;9.71;100.00;100166.03;5072612;28;20495;-72
2022/04/06 09:51:30;;;;;;;20.17;5.03;;;;;;;9.83;100.00;100155.63;5072864;28;20086;-72
2022/04/06 09:54:01;;;;;;;19.00;5.32;;;;;;;9.91;100.00;100164.41;5072603;28;20079;-73
2022/04/06 09:56:31;;;;;;;14.77;4.57;;;;;;;10.01;100.00;100160.09;5072582;28;20101;-73
2022/04/06 09:59:05;;;;;;;20.10;5.72;;;;;;;10.00;99.43;100140.88;5072629;28;20055;-73
2022/04/06 10:01:36;;;;;;;17.48;5.07;;;;;;;10.05;99.26;100151.38;5072431;28;20116;-74
2022/04/06 10:04:05;;;;;;;26.13;4.72;;;;;;;10.05;98.71;100152.25;5072977;28;20056;-75
2022/04/06 10:06:35;;;;;;;14.40;4.90;;;;;;;10.10;98.39;100142.66;5072591;28;20052;-75
2022/04/06 10:09:04;;;;;;;18.30;5.00;;;;;;;10.27;98.29;100137.50;5072288;28;20051;-74
2022/04/06 10:11:34;;;;;;;14.52;4.47;;;;;;;10.25;97.54;100138.38;5072405;28;20060;-76
2022/04/06 10:14:05;;;;;;;15.02;4.47;;;;;;;10.11;97.18;100139.16;5072354;28;20053;-73
2022/04/06 10:16:36;;;;;;;15.40;4.20;;;;;;;10.01;97.50;100140.00;5072115;28;20048;-74
2022/04/06 10:19:07;;;;;;;17.05;4.82;;;;;;;10.02;97.34;100133.00;5071795;28;20135;-74
2022/04/06 10:21:42;;;;;;;15.77;4.68;;;;;;;10.07;97.53;100126.06;5072134;28;20036;-73
2022/04/06 10:24:25;;;;;;;21.05;4.85;;;;;;;10.14;97.26;100140.94;5072024;28;20067;-74
2022/04/06 10:27:05;;;;;;;17.98;4.78;;;;;;;10.21;96.64;100126.13;5071652;28;20040;-74
2022/04/06 10:29:53;;;;;;;17.55;4.88;;;;;;;10.20;96.27;100134.88;5072271;28;20109;-74
2022/04/06 10:32:35;;;;;;;12.57;4.25;;;;;;;10.37;96.13;100122.69;5071807;28;20150;-75
2022/04/06 10:35:21;;;;;;;16.00;4.88;;;;;;;10.47;96.65;100113.94;5071981;28;20503;-76
2022/04/06 10:37:50;;;;;;;17.63;4.22;;;;;;;10.45;95.14;100092.09;5072123;28;20056;-74
2022/04/06 10:40:19;;;;;;;11.38;4.30;;;;;;;10.48;94.63;100105.22;5071858;28;20449;-75
2022/04/06 10:42:47;;;;;;;10.95;3.50;;;;;;;10.38;93.69;100100.84;5071487;28;20144;-74
2022/04/06 10:45:36;;;;;;;11.63;4.38;;;;;;;10.33;93.28;100097.34;5071948;28;20102;-74
2022/04/06 10:48:14;;;;;;;10.57;3.90;;;;;;;10.43;93.54;100088.59;5072025;28;20052;-74
2022/04/06 10:50:43;;;;;;;13.77;3.83;;;;;;;10.54;93.94;100093.84;5071946;28;20508;-75
2022/04/06 10:53:27;;;;;;;9.90;4.15;;;;;;;10.48;93.32;100100.84;5071809;28;20052;-75
2022/04/06 10:55:57;;;;;;;11.02;4.63;;;;;;;10.54;92.88;100086.00;5072104;28;20063;-75
2022/04/06 10:58:27;;;;;;;10.75;4.32;;;;;;;10.57;93.28;100089.50;5071808;28;20048;-75
2022/04/06 11:01:16;;;;;;;12.60;4.57;;;;;;;10.55;92.89;100087.75;5071605;28;20067;-75
2022/04/06 11:03:56;;;;;;;11.60;4.72;;;;;;;10.62;92.96;100087.75;5061256;28;20051;-74
2022/04/06 11:06:56;;;;;;;15.80;4.70;;;;;;;10.62;92.78;100082.50;5071586;28;20052;-75
2022/04/06 11:12:13;;;;;;;9.90;3.92;;;;;;;10.59;92.56;100087.75;5071896;28;20060;-77
2022/04/06 11:14:42;;;;;;;11.63;4.32;;;;;;;10.61;92.27;100086.00;5071831;28;20072;-77
2022/04/06 11:17:38;;;;;;;11.35;4.32;;;;;;;10.47;92.75;100088.59;5072436;28;20049;-76
2022/04/06 11:20:11;;;;;;;7.97;3.78;;;;;;;10.41;92.92;100085.97;5071864;28;20055;-76
2022/04/06 11:22:42;;;;;;;;;;;;;;;10.40;93.45;100088.63;5071733;28;20052;-75
2022/04/06 11:25:11;;;;;;;19.42;4.20;;;;;;;10.47;93.56;100077.25;5071706;28;19920;-76
2022/04/06 11:27:41;;;;;;;13.23;3.85;;;;;;;10.40;93.07;100075.53;5071899;28;20062;-77
2022/04/06 11:30:13;;;;;;;8.27;3.55;;;;;;;10.37;91.94;100075.50;5071737;28;20056;-76
2022/04/06 11:32:43;;;;;;;11.00;4.15;;;;;;;10.44;92.29;100067.63;5071472;28;20063;-76
2022/04/06 11:35:13;;;;;;;10.23;4.03;;;;;;;10.49;92.21;100062.38;5071223;28;20044;-75
2022/04/06 11:37:43;;;;;;;9.20;4.07;;;;;;;10.51;92.09;100055.41;5071386;28;20056;-75
2022/04/06 11:40:12;;;;;;;9.70;5.05;;;;;;;10.49;92.14;100049.28;5071467;28;20060;-76
2022/04/06 11:42:40;;;;;;;13.65;5.22;;;;;;;10.52;91.77;100051.91;5071214;28;20078;-77
2022/04/06 11:45:10;;;;;;;12.02;5.60;;;;;;;10.49;92.48;100059.78;5070969;28;20050;-79
2022/04/06 11:47:39;;;;;;;10.95;5.82;;;;;;;10.41;93.25;100051.03;5071154;28;20114;-78
2022/04/06 11:50:12;;;;;;;12.15;5.55;;;;;;;10.31;96.19;100057.16;5071518;28;20044;-78